sensor_id;sensor_type;location;lat;lon;timestamp;temperature;humidity
35027;DHT22;60696;51.426;6.934;2024-03-02T05:01:49;8.10;13.00
35027;DHT22;60696;51.426;6.934;2024-03-02T05:04:14;8.00;16.10
35027;DHT22;60696;51.426;6.934;2024-03-02T05:06:40;8.00;20.40
35027;DHT22;60696;51.426;6.934;2024-03-02T05:09:07;7.90;23.90
35027;DHT22;60696;51.426;6.934;2024-03-02T05:11:33;7.80;46.60
35027;DHT22;60696;51.426;6.934;2024-03-02T05:14:05;7.80;65.70
35027;DHT22;60696;51.426;6.934;2024-03-02T05:16:34;7.80;79.40
35027;DHT22;60696;51.426;6.934;2024-03-02T05:19:00;7.80;82.90
35027;DHT22;60696;51.426;6.934;2024-03-02T05:21:26;7.80;89.70
35027;DHT22;60696;51.426;6.934;2024-03-02T05:23:51;7.80;93.30
35027;DHT22;60696;51.426;6.934;2024-03-02T05:26:17;7.80;97.80
35027;DHT22;60696;51.426;6.934;2024-03-02T05:28:43;7.80;98.30
35027;DHT22;60696;51.426;6.934;2024-03-02T05:31:11;7.80;98.50
35027;DHT22;60696;51.426;6.934;2024-03-02T05:33:40;7.80;99.80
35027;DHT22;60696;51.426;6.934;2024-03-02T05:36:06;7.80;99.90
35027;DHT22;60696;51.426;6.934;2024-03-02T05:38:32;7.70;99.90
35027;DHT22;60696;51.426;6.934;2024-03-02T05:40:59;7.70;99.90
35027;DHT22;60696;51.426;6.934;2024-03-02T05:43:25;7.70;99.90
35027;DHT22;60696;51.426;6.934;2024-03-02T05:45:51;7.70;99.90
35027;DHT22;60696;51.426;6.934;2024-03-02T05:48:16;7.80;99.90
35027;DHT22;60696;51.426;6.934;2024-03-02T05:50:42;7.70;99.90
35027;DHT22;60696;51.426;6.934;2024-03-02T05:53:07;7.70;99.90
35027;DHT22;60696;51.426;6.934;2024-03-02T05:55:33;7.70;99.90
35027;DHT22;60696;51.426;6.934;2024-03-02T05:57:58;7.70;99.90
35027;DHT22;60696;51.426;6.934;2024-03-02T06:00:43;7.60;99.90
35027;DHT22;60696;51.426;6.934;2024-03-02T06:03:08;7.60;99.90
35027;DHT22;60696;51.426;6.934;2024-03-02T06:05:34;7.50;99.90
35027;DHT22;60696;51.426;6.934;2024-03-02T06:08:00;7.40;99.90
35027;DHT22;60696;51.426;6.934;2024-03-02T06:10:26;7.40;99.90
35027;DHT22;60696;51.426;6.934;2024-03-02T06:12:51;7.50;99.90
35027;DHT22;60696;51.426;6.934;2024-03-02T06:15:17;7.40;99.90
35027;DHT22;60696;51.426;6.934;2024-03-02T06:17:42;7.40;99.90
35027;DHT22;60696;51.426;6.934;2024-03-02T06:20:09;7.30;99.90
35027;DHT22;60696;51.426;6.934;2024-03-02T06:22:35;7.30;99.90
35027;DHT22;60696;51.426;6.934;2024-03-02T06:25:00;7.40;99.90
35027;DHT22;60696;51.426;6.934;2024-03-02T06:27:26;7.30;99.90
35027;DHT22;60696;51.426;6.934;2024-03-02T06:29:51;7.30;99.90
35027;DHT22;60696;51.426;6.934;2024-03-02T06:32:17;7.30;99.90
35027;DHT22;60696;51.426;6.934;2024-03-02T06:34:43;7.20;99.90
35027;DHT22;60696;51.426;6.934;2024-03-02T06:37:08;7.30;99.90
35027;DHT22;60696;51.426;6.934;2024-03-02T06:39:34;7.30;99.90
35027;DHT22;60696;51.426;6.934;2024-03-02T06:42:00;7.30;99.90
35027;DHT22;60696;51.426;6.934;2024-03-02T06:44:26;7.40;99.90
35027;DHT22;60696;51.426;6.934;2024-03-02T06:46:51;7.40;99.90
35027;DHT22;60696;51.426;6.934;2024-03-02T06:49:17;7.50;99.90
35027;DHT22;60696;51.426;6.934;2024-03-02T06:51:44;7.40;99.90
35027;DHT22;60696;51.426;6.934;2024-03-02T06:54:09;7.40;99.90
35027;DHT22;60696;51.426;6.934;2024-03-02T06:56:35;7.40;99.90
35027;DHT22;60696;51.426;6.934;2024-03-02T06:59:01;7.50;99.90
35027;DHT22;60696;51.426;6.934;2024-03-02T07:01:26;7.50;99.90
35027;DHT22;60696;51.426;6.934;2024-03-02T07:03:53;7.50;99.90
35027;DHT22;60696;51.426;6.934;2024-03-02T07:06:18;7.40;99.90
35027;DHT22;60696;51.426;6.934;2024-03-02T07:08:44;7.40;99.90
35027;DHT22;60696;51.426;6.934;2024-03-02T07:11:10;7.40;99.90
35027;DHT22;60696;51.426;6.934;2024-03-02T07:13:35;7.40;99.90
35027;DHT22;60696;51.426;6.934;2024-03-02T07:16:01;7.60;99.90
35027;DHT22;60696;51.426;6.934;2024-03-02T07:18:30;7.70;99.90
35027;DHT22;60696;51.426;6.934;2024-03-02T07:20:59;7.80;99.90
35027;DHT22;60696;51.426;6.934;2024-03-02T07:23:26;7.90;99.90
35027;DHT22;60696;51.426;6.934;2024-03-02T07:25:56;8.10;99.90
35027;DHT22;60696;51.426;6.934;2024-03-02T07:28:22;8.10;99.90
35027;DHT22;60696;51.426;6.934;2024-03-02T07:31:01;8.20;99.90
35027;DHT22;60696;51.426;6.934;2024-03-02T07:33:26;8.20;99.90
35027;DHT22;60696;51.426;6.934;2024-03-02T07:35:54;8.30;99.90
35027;DHT22;60696;51.426;6.934;2024-03-02T07:38:20;8.40;99.90
35027;DHT22;60696;51.426;6.934;2024-03-02T07:40:45;8.40;99.90
35027;DHT22;60696;51.426;6.934;2024-03-02T07:43:11;8.40;99.90
35027;DHT22;60696;51.426;6.934;2024-03-02T07:45:37;8.50;99.90
35027;DHT22;60696;51.426;6.934;2024-03-02T07:48:02;8.60;99.90
35027;DHT22;60696;51.426;6.934;2024-03-02T07:50:29;8.60;99.90
35027;DHT22;60696;51.426;6.934;2024-03-02T07:52:55;8.70;99.90
35027;DHT22;60696;51.426;6.934;2024-03-02T07:55:21;8.90;99.90
35027;DHT22;60696;51.426;6.934;2024-03-02T07:57:49;9.10;99.90
35027;DHT22;60696;51.426;6.934;2024-03-02T08:00:15;9.20;94.50
35027;DHT22;60696;51.426;6.934;2024-03-02T08:02:41;9.30;84.90
35027;DHT22;60696;51.426;6.934;2024-03-02T08:05:08;9.50;70.30
35027;DHT22;60696;51.426;6.934;2024-03-02T08:07:34;9.70;51.70
35027;DHT22;60696;51.426;6.934;2024-03-02T08:09:59;10.30;39.60
35027;DHT22;60696;51.426;6.934;2024-03-02T08:12:25;11.60;1.00
35027;DHT22;60696;51.426;6.934;2024-03-02T08:14:51;12.60;1.00
35027;DHT22;60696;51.426;6.934;2024-03-02T08:17:16;12.90;1.00
35027;DHT22;60696;51.426;6.934;2024-03-02T08:19:43;13.30;1.00
35027;DHT22;60696;51.426;6.934;2024-03-02T08:22:09;13.90;1.00
35027;DHT22;60696;51.426;6.934;2024-03-02T08:24:35;15.00;1.00
35027;DHT22;60696;51.426;6.934;2024-03-02T08:27:01;16.00;1.00
35027;DHT22;60696;51.426;6.934;2024-03-02T08:29:27;16.00;1.00
35027;DHT22;60696;51.426;6.934;2024-03-02T08:31:53;16.20;1.00
35027;DHT22;60696;51.426;6.934;2024-03-02T08:34:19;17.10;1.00
35027;DHT22;60696;51.426;6.934;2024-03-02T08:36:46;17.30;1.00
35027;DHT22;60696;51.426;6.934;2024-03-02T08:39:11;18.10;1.00
35027;DHT22;60696;51.426;6.934;2024-03-02T08:41:47;17.90;1.00
35027;DHT22;60696;51.426;6.934;2024-03-02T08:44:13;17.60;1.00
35027;DHT22;60696;51.426;6.934;2024-03-02T08:46:39;17.80;1.00
35027;DHT22;60696;51.426;6.934;2024-03-02T08:49:06;16.80;1.00
35027;DHT22;60696;51.426;6.934;2024-03-02T08:51:32;17.30;1.00
35027;DHT22;60696;51.426;6.934;2024-03-02T08:53:57;17.20;1.00
35027;DHT22;60696;51.426;6.934;2024-03-02T08:56:24;17.40;99.90
35027;DHT22;60696;51.426;6.934;2024-03-02T08:58:50;17.60;99.90
35027;DHT22;60696;51.426;6.934;2024-03-02T09:01:16;18.80;1.00
35027;DHT22;60696;51.426;6.934;2024-03-02T09:03:42;18.60;99.90
35027;DHT22;60696;51.426;6.934;2024-03-02T09:06:11;18.50;99.90
35027;DHT22;60696;51.426;6.934;2024-03-02T09:08:38;17.60;99.90
35027;DHT22;60696;51.426;6.934;2024-03-02T09:11:05;17.10;99.90
35027;DHT22;60696;51.426;6.934;2024-03-02T09:13:32;16.60;99.90
35027;DHT22;60696;51.426;6.934;2024-03-02T09:15:57;15.80;99.90
35027;DHT22;60696;51.426;6.934;2024-03-02T09:18:23;15.90;99.90
35027;DHT22;60696;51.426;6.934;2024-03-02T09:20:48;16.10;99.90
35027;DHT22;60696;51.426;6.934;2024-03-02T09:23:14;16.30;99.90
35027;DHT22;60696;51.426;6.934;2024-03-02T09:25:40;16.40;99.90
35027;DHT22;60696;51.426;6.934;2024-03-02T09:28:05;17.10;99.90
35027;DHT22;60696;51.426;6.934;2024-03-02T09:30:32;17.50;99.90
35027;DHT22;60696;51.426;6.934;2024-03-02T09:32:58;18.00;99.90
35027;DHT22;60696;51.426;6.934;2024-03-02T09:35:24;18.50;99.90
35027;DHT22;60696;51.426;6.934;2024-03-02T09:37:50;17.90;99.90
35027;DHT22;60696;51.426;6.934;2024-03-02T09:40:16;18.40;99.90
35027;DHT22;60696;51.426;6.934;2024-03-02T09:42:42;17.90;99.90
35027;DHT22;60696;51.426;6.934;2024-03-02T09:45:09;17.40;99.90
35027;DHT22;60696;51.426;6.934;2024-03-02T09:47:35;18.00;99.90
35027;DHT22;60696;51.426;6.934;2024-03-02T09:50:00;18.30;99.90
35027;DHT22;60696;51.426;6.934;2024-03-02T09:52:26;16.70;99.90
35027;DHT22;60696;51.426;6.934;2024-03-02T09:54:52;17.10;99.90
35027;DHT22;60696;51.426;6.934;2024-03-02T09:57:18;16.60;99.90
35027;DHT22;60696;51.426;6.934;2024-03-02T09:59:43;17.10;99.90
35027;DHT22;60696;51.426;6.934;2024-03-02T10:02:11;17.40;99.90
35027;DHT22;60696;51.426;6.934;2024-03-02T10:04:36;17.10;99.90
35027;DHT22;60696;51.426;6.934;2024-03-02T10:07:15;17.00;99.90
35027;DHT22;60696;51.426;6.934;2024-03-02T10:09:42;17.20;99.90
35027;DHT22;60696;51.426;6.934;2024-03-02T10:12:09;17.40;99.90
35027;DHT22;60696;51.426;6.934;2024-03-02T10:14:35;17.90;99.90
35027;DHT22;60696;51.426;6.934;2024-03-02T10:17:12;17.80;99.90
35027;DHT22;60696;51.426;6.934;2024-03-02T10:19:38;17.70;99.90
35027;DHT22;60696;51.426;6.934;2024-03-02T10:22:09;17.80;99.90
35027;DHT22;60696;51.426;6.934;2024-03-02T10:24:42;17.10;99.90
35027;DHT22;60696;51.426;6.934;2024-03-02T10:27:23;16.60;99.90
35027;DHT22;60696;51.426;6.934;2024-03-02T10:29:49;15.40;99.90
35027;DHT22;60696;51.426;6.934;2024-03-02T10:32:15;14.90;99.90
35027;DHT22;60696;51.426;6.934;2024-03-02T10:34:42;15.00;99.90
35027;DHT22;60696;51.426;6.934;2024-03-02T10:37:10;14.70;99.90
35027;DHT22;60696;51.426;6.934;2024-03-02T10:39:36;15.10;99.90
35027;DHT22;60696;51.426;6.934;2024-03-02T10:42:03;15.80;99.90
35027;DHT22;60696;51.426;6.934;2024-03-02T10:44:31;17.00;99.90
35027;DHT22;60696;51.426;6.934;2024-03-02T10:47:02;17.50;99.90
35027;DHT22;60696;51.426;6.934;2024-03-02T10:49:30;17.60;99.90
35027;DHT22;60696;51.426;6.934;2024-03-02T10:51:56;17.80;99.90
35027;DHT22;60696;51.426;6.934;2024-03-02T10:54:22;18.10;99.90
35027;DHT22;60696;51.426;6.934;2024-03-02T10:56:53;18.60;99.90
35027;DHT22;60696;51.426;6.934;2024-03-02T10:59:28;18.60;99.90
35027;DHT22;60696;51.426;6.934;2024-03-02T11:01:58;19.30;99.90
35027;DHT22;60696;51.426;6.934;2024-03-02T11:04:26;19.00;99.90
35027;DHT22;60696;51.426;6.934;2024-03-02T11:06:54;18.80;99.90
35027;DHT22;60696;51.426;6.934;2024-03-02T11:09:26;18.80;99.90
35027;DHT22;60696;51.426;6.934;2024-03-02T11:14:47;19.70;99.90
35027;DHT22;60696;51.426;6.934;2024-03-02T11:17:14;19.30;99.90
35027;DHT22;60696;51.426;6.934;2024-03-02T11:19:44;17.90;99.90
35027;DHT22;60696;51.426;6.934;2024-03-02T11:22:10;17.70;99.90
35027;DHT22;60696;51.426;6.934;2024-03-02T11:24:36;18.00;99.90
35027;DHT22;60696;51.426;6.934;2024-03-02T11:27:06;18.20;99.90
35027;DHT22;60696;51.426;6.934;2024-03-02T11:32:40;18.60;99.90
35027;DHT22;60696;51.426;6.934;2024-03-02T11:34:58;17.90;99.90
35027;DHT22;60696;51.426;6.934;2024-03-02T11:37:24;17.80;99.90
35027;DHT22;60696;51.426;6.934;2024-03-02T11:39:51;18.20;99.90
35027;DHT22;60696;51.426;6.934;2024-03-02T11:42:18;18.60;99.90
35027;DHT22;60696;51.426;6.934;2024-03-02T11:44:47;18.80;99.90
35027;DHT22;60696;51.426;6.934;2024-03-02T11:47:15;19.40;99.90
35027;DHT22;60696;51.426;6.934;2024-03-02T11:49:45;19.80;99.90
35027;DHT22;60696;51.426;6.934;2024-03-02T11:52:14;19.80;99.90
35027;DHT22;60696;51.426;6.934;2024-03-02T11:54:42;19.30;99.90
35027;DHT22;60696;51.426;6.934;2024-03-02T11:57:17;19.30;99.90
35027;DHT22;60696;51.426;6.934;2024-03-02T11:59:44;19.20;99.90
35027;DHT22;60696;51.426;6.934;2024-03-02T12:02:20;19.40;99.90
35027;DHT22;60696;51.426;6.934;2024-03-02T12:04:47;19.60;99.90
35027;DHT22;60696;51.426;6.934;2024-03-02T12:07:19;19.40;99.90
35027;DHT22;60696;51.426;6.934;2024-03-02T12:09:45;18.40;99.90
35027;DHT22;60696;51.426;6.934;2024-03-02T12:12:10;17.60;99.90
35027;DHT22;60696;51.426;6.934;2024-03-02T12:14:38;17.30;99.90
35027;DHT22;60696;51.426;6.934;2024-03-02T12:17:04;16.90;99.90
35027;DHT22;60696;51.426;6.934;2024-03-02T12:19:32;16.60;99.90
35027;DHT22;60696;51.426;6.934;2024-03-02T12:22:01;16.00;99.90
35027;DHT22;60696;51.426;6.934;2024-03-02T12:24:28;15.90;99.90
35027;DHT22;60696;51.426;6.934;2024-03-02T12:26:54;15.50;99.90
35027;DHT22;60696;51.426;6.934;2024-03-02T12:29:20;15.40;99.90
35027;DHT22;60696;51.426;6.934;2024-03-02T12:31:51;15.50;99.90
35027;DHT22;60696;51.426;6.934;2024-03-02T12:34:18;15.30;99.90
35027;DHT22;60696;51.426;6.934;2024-03-02T12:36:45;15.30;99.90
35027;DHT22;60696;51.426;6.934;2024-03-02T12:39:13;15.20;99.90
35027;DHT22;60696;51.426;6.934;2024-03-02T12:41:39;15.10;99.90
35027;DHT22;60696;51.426;6.934;2024-03-02T12:44:05;14.90;99.90
35027;DHT22;60696;51.426;6.934;2024-03-02T12:46:32;14.70;99.90
35027;DHT22;60696;51.426;6.934;2024-03-02T12:48:58;14.70;99.90
35027;DHT22;60696;51.426;6.934;2024-03-02T12:51:24;14.60;99.90
35027;DHT22;60696;51.426;6.934;2024-03-02T12:53:54;14.60;99.90
35027;DHT22;60696;51.426;6.934;2024-03-02T12:56:20;14.60;99.90
35027;DHT22;60696;51.426;6.934;2024-03-02T12:58:46;14.80;99.90
35027;DHT22;60696;51.426;6.934;2024-03-02T13:01:14;14.90;99.90
35027;DHT22;60696;51.426;6.934;2024-03-02T13:03:41;15.00;99.90
35027;DHT22;60696;51.426;6.934;2024-03-02T13:06:07;15.10;99.90
35027;DHT22;60696;51.426;6.934;2024-03-02T13:08:33;14.80;99.90
35027;DHT22;60696;51.426;6.934;2024-03-02T13:10:59;14.90;99.90
35027;DHT22;60696;51.426;6.934;2024-03-02T13:13:25;14.50;99.90
35027;DHT22;60696;51.426;6.934;2024-03-02T13:15:55;14.30;99.90
35027;DHT22;60696;51.426;6.934;2024-03-02T13:18:21;14.10;99.90
35027;DHT22;60696;51.426;6.934;2024-03-02T13:20:47;14.00;99.90
35027;DHT22;60696;51.426;6.934;2024-03-02T13:23:13;14.00;99.90
35027;DHT22;60696;51.426;6.934;2024-03-02T13:25:39;13.80;99.90
35027;DHT22;60696;51.426;6.934;2024-03-02T13:28:05;13.80;99.90
35027;DHT22;60696;51.426;6.934;2024-03-02T13:30:32;13.80;99.90
35027;DHT22;60696;51.426;6.934;2024-03-02T13:32:58;13.60;99.90
35027;DHT22;60696;51.426;6.934;2024-03-02T13:35:23;13.80;99.90
35027;DHT22;60696;51.426;6.934;2024-03-02T13:37:49;13.60;99.90
35027;DHT22;60696;51.426;6.934;2024-03-02T13:40:15;13.60;99.90
35027;DHT22;60696;51.426;6.934;2024-03-02T13:42:48;13.70;99.90
35027;DHT22;60696;51.426;6.934;2024-03-02T13:45:14;13.60;99.90
35027;DHT22;60696;51.426;6.934;2024-03-02T13:47:40;13.60;99.90
35027;DHT22;60696;51.426;6.934;2024-03-02T13:50:06;13.70;99.90
35027;DHT22;60696;51.426;6.934;2024-03-02T13:52:32;13.80;99.90
35027;DHT22;60696;51.426;6.934;2024-03-02T13:54:58;13.90;99.90
35027;DHT22;60696;51.426;6.934;2024-03-02T13:57:24;14.00;99.90
35027;DHT22;60696;51.426;6.934;2024-03-02T13:59:49;14.10;99.90
35027;DHT22;60696;51.426;6.934;2024-03-02T14:02:17;13.90;99.90
35027;DHT22;60696;51.426;6.934;2024-03-02T14:04:42;13.80;99.90
35027;DHT22;60696;51.426;6.934;2024-03-02T14:07:08;13.80;99.90
35027;DHT22;60696;51.426;6.934;2024-03-02T14:09:34;13.70;99.90
35027;DHT22;60696;51.426;6.934;2024-03-02T14:12:00;13.70;99.90
35027;DHT22;60696;51.426;6.934;2024-03-02T14:14:26;13.70;99.90
35027;DHT22;60696;51.426;6.934;2024-03-02T14:16:53;13.70;99.90
35027;DHT22;60696;51.426;6.934;2024-03-02T14:19:19;13.80;99.90
35027;DHT22;60696;51.426;6.934;2024-03-02T14:21:46;13.90;99.90
35027;DHT22;60696;51.426;6.934;2024-03-02T14:24:13;13.90;99.90
35027;DHT22;60696;51.426;6.934;2024-03-02T14:26:38;13.90;99.90
35027;DHT22;60696;51.426;6.934;2024-03-02T14:29:04;14.10;99.90
35027;DHT22;60696;51.426;6.934;2024-03-02T14:31:31;14.20;99.90
35027;DHT22;60696;51.426;6.934;2024-03-02T14:33:57;14.10;99.90
35027;DHT22;60696;51.426;6.934;2024-03-02T14:36:22;14.20;99.90
35027;DHT22;60696;51.426;6.934;2024-03-02T14:38:48;14.20;99.90
35027;DHT22;60696;51.426;6.934;2024-03-02T14:41:14;14.30;99.90
35027;DHT22;60696;51.426;6.934;2024-03-02T14:43:40;14.30;99.90
35027;DHT22;60696;51.426;6.934;2024-03-02T14:46:06;14.40;99.90
35027;DHT22;60696;51.426;6.934;2024-03-02T14:48:38;14.50;99.90
35027;DHT22;60696;51.426;6.934;2024-03-02T14:51:04;14.30;99.90
35027;DHT22;60696;51.426;6.934;2024-03-02T14:53:30;14.50;99.90
35027;DHT22;60696;51.426;6.934;2024-03-02T14:55:55;14.50;99.90
35027;DHT22;60696;51.426;6.934;2024-03-02T14:58:21;14.30;99.90
35027;DHT22;60696;51.426;6.934;2024-03-02T15:00:47;14.40;99.90
35027;DHT22;60696;51.426;6.934;2024-03-02T15:03:13;14.30;99.90
35027;DHT22;60696;51.426;6.934;2024-03-02T15:05:39;14.10;99.90
35027;DHT22;60696;51.426;6.934;2024-03-02T15:08:06;14.10;99.90
35027;DHT22;60696;51.426;6.934;2024-03-02T15:10:32;14.00;99.90
35027;DHT22;60696;51.426;6.934;2024-03-02T15:12:58;14.00;99.90
35027;DHT22;60696;51.426;6.934;2024-03-02T15:15:24;14.00;99.90
35027;DHT22;60696;51.426;6.934;2024-03-02T15:17:49;14.00;99.90
35027;DHT22;60696;51.426;6.934;2024-03-02T15:20:16;13.90;99.90
35027;DHT22;60696;51.426;6.934;2024-03-02T15:22:41;13.90;99.90
35027;DHT22;60696;51.426;6.934;2024-03-02T15:25:07;13.90;99.90
35027;DHT22;60696;51.426;6.934;2024-03-02T15:27:33;13.80;99.90
35027;DHT22;60696;51.426;6.934;2024-03-02T15:29:58;13.80;99.90
35027;DHT22;60696;51.426;6.934;2024-03-02T15:32:24;13.80;99.90
35027;DHT22;60696;51.426;6.934;2024-03-02T15:34:54;13.70;99.90
35027;DHT22;60696;51.426;6.934;2024-03-02T15:37:20;13.60;99.90
35027;DHT22;60696;51.426;6.934;2024-03-02T15:39:46;13.60;99.90
35027;DHT22;60696;51.426;6.934;2024-03-02T15:42:11;13.50;99.90
35027;DHT22;60696;51.426;6.934;2024-03-02T15:44:38;13.50;99.90
35027;DHT22;60696;51.426;6.934;2024-03-02T15:47:04;13.50;99.90
35027;DHT22;60696;51.426;6.934;2024-03-02T15:49:30;13.50;99.90
35027;DHT22;60696;51.426;6.934;2024-03-02T15:51:57;13.50;99.90
35027;DHT22;60696;51.426;6.934;2024-03-02T15:54:25;13.50;99.90
35027;DHT22;60696;51.426;6.934;2024-03-02T15:56:51;13.50;99.90
35027;DHT22;60696;51.426;6.934;2024-03-02T15:59:17;13.40;99.90
35027;DHT22;60696;51.426;6.934;2024-03-02T16:01:42;13.40;99.90
35027;DHT22;60696;51.426;6.934;2024-03-02T16:04:08;13.50;99.90
35027;DHT22;60696;51.426;6.934;2024-03-02T16:06:34;13.40;99.90
35027;DHT22;60696;51.426;6.934;2024-03-02T16:09:00;13.40;99.90
35027;DHT22;60696;51.426;6.934;2024-03-02T16:11:26;13.40;99.90
35027;DHT22;60696;51.426;6.934;2024-03-02T16:13:52;13.30;99.90
35027;DHT22;60696;51.426;6.934;2024-03-02T16:16:17;13.20;99.90
35027;DHT22;60696;51.426;6.934;2024-03-02T16:18:43;13.40;99.90
35027;DHT22;60696;51.426;6.934;2024-03-02T16:21:09;13.30;99.90
35027;DHT22;60696;51.426;6.934;2024-03-02T16:23:35;13.30;99.90
35027;DHT22;60696;51.426;6.934;2024-03-02T16:26:00;13.30;99.90
35027;DHT22;60696;51.426;6.934;2024-03-02T16:28:27;13.30;99.90
35027;DHT22;60696;51.426;6.934;2024-03-02T16:30:52;13.40;99.90
35027;DHT22;60696;51.426;6.934;2024-03-02T16:33:19;13.40;99.90
35027;DHT22;60696;51.426;6.934;2024-03-02T16:35:45;13.30;99.90
35027;DHT22;60696;51.426;6.934;2024-03-02T16:38:14;13.30;99.90
35027;DHT22;60696;51.426;6.934;2024-03-02T16:40:40;13.30;99.90
35027;DHT22;60696;51.426;6.934;2024-03-02T16:43:06;13.20;99.90
35027;DHT22;60696;51.426;6.934;2024-03-02T16:45:32;13.20;99.90
35027;DHT22;60696;51.426;6.934;2024-03-02T16:47:57;13.10;99.90
35027;DHT22;60696;51.426;6.934;2024-03-02T16:50:23;13.10;99.90
35027;DHT22;60696;51.426;6.934;2024-03-02T16:52:49;13.10;99.90
35027;DHT22;60696;51.426;6.934;2024-03-02T16:55:14;13.10;99.90
35027;DHT22;60696;51.426;6.934;2024-03-02T16:57:40;13.10;99.90
35027;DHT22;60696;51.426;6.934;2024-03-02T17:00:06;13.10;99.90
35027;DHT22;60696;51.426;6.934;2024-03-02T17:02:33;13.10;1.00
35027;DHT22;60696;51.426;6.934;2024-03-02T17:04:59;13.00;99.90
35027;DHT22;60696;51.426;6.934;2024-03-02T17:07:25;13.00;99.90
35027;DHT22;60696;51.426;6.934;2024-03-02T17:09:54;12.90;99.90
35027;DHT22;60696;51.426;6.934;2024-03-02T17:12:22;12.90;99.90
35027;DHT22;60696;51.426;6.934;2024-03-02T17:14:48;12.90;99.90
35027;DHT22;60696;51.426;6.934;2024-03-02T17:17:14;13.00;99.90
35027;DHT22;60696;51.426;6.934;2024-03-02T17:19:40;12.90;99.90
35027;DHT22;60696;51.426;6.934;2024-03-02T17:22:06;12.90;99.90
35027;DHT22;60696;51.426;6.934;2024-03-02T17:24:31;12.90;99.90
35027;DHT22;60696;51.426;6.934;2024-03-02T17:26:57;12.90;99.90
35027;DHT22;60696;51.426;6.934;2024-03-02T17:29:23;12.80;99.90
35027;DHT22;60696;51.426;6.934;2024-03-02T17:31:52;12.80;99.90
35027;DHT22;60696;51.426;6.934;2024-03-02T17:34:18;12.70;99.90
35027;DHT22;60696;51.426;6.934;2024-03-02T17:36:43;12.70;99.90
35027;DHT22;60696;51.426;6.934;2024-03-02T17:39:09;12.70;99.90
35027;DHT22;60696;51.426;6.934;2024-03-02T17:41:35;12.70;99.90
35027;DHT22;60696;51.426;6.934;2024-03-02T17:44:02;12.70;99.90
35027;DHT22;60696;51.426;6.934;2024-03-02T17:46:27;12.60;99.90
35027;DHT22;60696;51.426;6.934;2024-03-02T17:48:53;12.60;99.90
35027;DHT22;60696;51.426;6.934;2024-03-02T17:51:19;12.60;99.90
35027;DHT22;60696;51.426;6.934;2024-03-02T17:53:45;12.60;99.90
35027;DHT22;60696;51.426;6.934;2024-03-02T17:56:10;12.60;99.90
35027;DHT22;60696;51.426;6.934;2024-03-02T17:58:37;12.60;99.90
35027;DHT22;60696;51.426;6.934;2024-03-02T18:01:03;12.60;99.90
35027;DHT22;60696;51.426;6.934;2024-03-02T18:03:29;12.60;99.90
35027;DHT22;60696;51.426;6.934;2024-03-02T18:05:55;12.70;99.90
35027;DHT22;60696;51.426;6.934;2024-03-02T18:08:20;12.60;99.90
35027;DHT22;60696;51.426;6.934;2024-03-02T18:10:46;12.70;99.90
35027;DHT22;60696;51.426;6.934;2024-03-02T18:13:15;12.70;99.90
35027;DHT22;60696;51.426;6.934;2024-03-02T18:15:41;12.60;99.90
35027;DHT22;60696;51.426;6.934;2024-03-02T18:18:07;12.60;99.90
35027;DHT22;60696;51.426;6.934;2024-03-02T18:20:32;12.60;99.90
35027;DHT22;60696;51.426;6.934;2024-03-02T18:23:00;12.60;99.90
35027;DHT22;60696;51.426;6.934;2024-03-02T18:25:26;12.50;99.90
35027;DHT22;60696;51.426;6.934;2024-03-02T18:27:51;12.60;99.90
35027;DHT22;60696;51.426;6.934;2024-03-02T18:30:17;12.60;99.90
35027;DHT22;60696;51.426;6.934;2024-03-02T18:32:43;12.60;99.90
35027;DHT22;60696;51.426;6.934;2024-03-02T18:35:09;12.60;99.90
35027;DHT22;60696;51.426;6.934;2024-03-02T18:37:38;12.60;99.90
35027;DHT22;60696;51.426;6.934;2024-03-02T18:40:05;12.60;99.90
35027;DHT22;60696;51.426;6.934;2024-03-02T18:42:31;12.60;99.90
35027;DHT22;60696;51.426;6.934;2024-03-02T18:44:57;12.60;99.90
35027;DHT22;60696;51.426;6.934;2024-03-02T18:47:23;12.50;99.90
35027;DHT22;60696;51.426;6.934;2024-03-02T18:49:49;12.50;99.90
35027;DHT22;60696;51.426;6.934;2024-03-02T18:52:15;12.60;99.90
35027;DHT22;60696;51.426;6.934;2024-03-02T18:54:41;12.70;99.90
35027;DHT22;60696;51.426;6.934;2024-03-02T18:57:07;12.60;99.90
35027;DHT22;60696;51.426;6.934;2024-03-02T18:59:35;12.60;99.90
35027;DHT22;60696;51.426;6.934;2024-03-02T19:02:01;12.60;99.90
35027;DHT22;60696;51.426;6.934;2024-03-02T19:04:27;12.50;99.90
35027;DHT22;60696;51.426;6.934;2024-03-02T19:06:53;12.50;99.90
35027;DHT22;60696;51.426;6.934;2024-03-02T19:09:18;12.40;99.90
35027;DHT22;60696;51.426;6.934;2024-03-02T19:11:44;12.30;99.90
35027;DHT22;60696;51.426;6.934;2024-03-02T19:14:09;12.30;99.90
35027;DHT22;60696;51.426;6.934;2024-03-02T19:16:36;12.40;99.90
35027;DHT22;60696;51.426;6.934;2024-03-02T19:19:02;12.30;99.90
35027;DHT22;60696;51.426;6.934;2024-03-02T19:21:28;12.40;99.90
35027;DHT22;60696;51.426;6.934;2024-03-02T19:23:54;12.40;99.90
35027;DHT22;60696;51.426;6.934;2024-03-02T19:26:19;12.30;99.90
35027;DHT22;60696;51.426;6.934;2024-03-02T19:28:45;12.40;99.90
35027;DHT22;60696;51.426;6.934;2024-03-02T19:31:14;12.40;99.90
35027;DHT22;60696;51.426;6.934;2024-03-02T19:33:40;12.30;99.90
35027;DHT22;60696;51.426;6.934;2024-03-02T19:36:05;12.30;99.90
35027;DHT22;60696;51.426;6.934;2024-03-02T19:38:31;12.40;99.90
35027;DHT22;60696;51.426;6.934;2024-03-02T19:40:59;12.30;99.90
35027;DHT22;60696;51.426;6.934;2024-03-02T19:43:25;12.30;99.90
35027;DHT22;60696;51.426;6.934;2024-03-02T19:45:50;12.30;1.00
35027;DHT22;60696;51.426;6.934;2024-03-02T19:48:16;12.20;1.00
35027;DHT22;60696;51.426;6.934;2024-03-02T19:50:43;12.30;1.00
35027;DHT22;60696;51.426;6.934;2024-03-02T19:53:09;12.20;1.00
35027;DHT22;60696;51.426;6.934;2024-03-02T19:55:35;12.20;1.00
35027;DHT22;60696;51.426;6.934;2024-03-02T19:58:02;12.10;1.00
35027;DHT22;60696;51.426;6.934;2024-03-02T20:00:27;12.10;1.00
35027;DHT22;60696;51.426;6.934;2024-03-02T20:02:53;12.10;1.00
35027;DHT22;60696;51.426;6.934;2024-03-02T20:05:19;12.20;1.00
35027;DHT22;60696;51.426;6.934;2024-03-02T20:07:45;12.30;1.00
35027;DHT22;60696;51.426;6.934;2024-03-02T20:10:11;12.20;1.00
35027;DHT22;60696;51.426;6.934;2024-03-02T20:12:37;12.20;1.00
35027;DHT22;60696;51.426;6.934;2024-03-02T20:15:06;12.20;1.00
35027;DHT22;60696;51.426;6.934;2024-03-02T20:17:35;12.30;1.00
35027;DHT22;60696;51.426;6.934;2024-03-02T20:20:01;12.30;1.00
35027;DHT22;60696;51.426;6.934;2024-03-02T20:22:26;12.30;1.00
35027;DHT22;60696;51.426;6.934;2024-03-02T20:24:52;12.30;1.00
35027;DHT22;60696;51.426;6.934;2024-03-02T20:27:18;12.40;1.00
35027;DHT22;60696;51.426;6.934;2024-03-02T20:29:45;12.40;1.00
35027;DHT22;60696;51.426;6.934;2024-03-02T20:32:11;12.40;1.00
35027;DHT22;60696;51.426;6.934;2024-03-02T20:34:36;12.40;1.00
35027;DHT22;60696;51.426;6.934;2024-03-02T20:37:02;12.40;1.00